SNJ59 RJTT-RJFM
Flight info
| Callsign | SNJ59 |
|---|---|
| Flight time | 1h 28m |
| Altitude | 36000 |
| Route | LAXAS Y56 TOHME Y54 RUPAP Y244 GREEN Y24 SUC Y402 RYUGU |
| Aircraft | B738/M-SDE2E3FGHIRWXY/LB1 |
Departure
| Time | 2026-05-07 12:02 |
|---|---|
| Airport | Tokyo Haneda International Airport (RJTT) |
Arrival
| Time | 2026-05-07 13:30 |
|---|---|
| Airport | Miyazaki Airport (RJFM) |
| Time | Latitude | Longitude | Altitude | Speed | Heading |
|---|---|---|---|---|---|
| 2026-05-07 11:26 | 35.55599 | 139.78863 | 25 ft | 0 kts | 149° |
| 2026-05-07 11:48 | 35.55602 | 139.78861 | 30 ft | 3 kts | 149° |
| 2026-05-07 11:48 | 35.55625 | 139.78845 | 30 ft | 4 kts | 149° |
| 2026-05-07 11:48 | 35.55645 | 139.78831 | 29 ft | 4 kts | 147° |
| 2026-05-07 11:49 | 35.55662 | 139.78810 | 30 ft | 4 kts | 107° |
| 2026-05-07 11:49 | 35.55661 | 139.78780 | 29 ft | 4 kts | 65° |
| 2026-05-07 11:49 | 35.55656 | 139.78768 | 28 ft | 1 kts | 59° |
| 2026-05-07 11:54 | 35.55661 | 139.78778 | 25 ft | 4 kts | 60° |
| 2026-05-07 11:55 | 35.55683 | 139.78825 | 23 ft | 9 kts | 60° |
| 2026-05-07 11:55 | 35.55722 | 139.78908 | 23 ft | 12 kts | 60° |
| 2026-05-07 11:55 | 35.55783 | 139.78964 | 25 ft | 12 kts | 355° |
| 2026-05-07 11:55 | 35.55861 | 139.78917 | 24 ft | 14 kts | 330° |
| 2026-05-07 11:56 | 35.55942 | 139.78859 | 26 ft | 13 kts | 330° |
| 2026-05-07 11:56 | 35.56018 | 139.78806 | 25 ft | 11 kts | 330° |
| 2026-05-07 11:56 | 35.56068 | 139.78770 | 24 ft | 9 kts | 331° |
| 2026-05-07 11:56 | 35.56129 | 139.78777 | 22 ft | 10 kts | 43° |
| 2026-05-07 11:57 | 35.56168 | 139.78856 | 23 ft | 11 kts | 60° |
| 2026-05-07 11:57 | 35.56178 | 139.78939 | 27 ft | 10 kts | 116° |
| 2026-05-07 11:57 | 35.56144 | 139.78970 | 27 ft | 0 kts | 150° |
| 2026-05-07 12:01 | 35.55861 | 139.79170 | 26 ft | 93 kts | 150° |
| 2026-05-07 12:01 | 35.55071 | 139.79719 | 69 ft | 164 kts | 150° |
| 2026-05-07 12:01 | 35.54011 | 139.80539 | 538 ft | 201 kts | 153° |
| 2026-05-07 12:02 | 35.52796 | 139.81378 | 1650 ft | 194 kts | 157° |
| 2026-05-07 12:02 | 35.51593 | 139.82208 | 2546 ft | 209 kts | 157° |
| 2026-05-07 12:02 | 35.50249 | 139.83138 | 2864 ft | 234 kts | 156° |
| 2026-05-07 12:02 | 35.48803 | 139.84151 | 3482 ft | 241 kts | 158° |
| 2026-05-07 12:03 | 35.47230 | 139.84554 | 4124 ft | 231 kts | 193° |
| 2026-05-07 12:03 | 35.45825 | 139.83754 | 4843 ft | 225 kts | 219° |
| 2026-05-07 12:03 | 35.44576 | 139.82523 | 5473 ft | 231 kts | 221° |
| 2026-05-07 12:03 | 35.43349 | 139.81246 | 6147 ft | 235 kts | 222° |
| 2026-05-07 12:04 | 35.42066 | 139.79902 | 6568 ft | 252 kts | 222° |
| 2026-05-07 12:04 | 35.40705 | 139.78475 | 7278 ft | 260 kts | 222° |
| 2026-05-07 12:04 | 35.39325 | 139.77033 | 8179 ft | 262 kts | 222° |
| 2026-05-07 12:04 | 35.37923 | 139.75579 | 9082 ft | 265 kts | 222° |
| 2026-05-07 12:05 | 35.36507 | 139.74118 | 9936 ft | 269 kts | 222° |
| 2026-05-07 12:05 | 35.35055 | 139.72626 | 10534 ft | 282 kts | 222° |
| 2026-05-07 12:05 | 35.33480 | 139.71001 | 10720 ft | 308 kts | 222° |
| 2026-05-07 12:05 | 35.31783 | 139.69246 | 11052 ft | 326 kts | 222° |
| 2026-05-07 12:06 | 35.30033 | 139.67436 | 11734 ft | 331 kts | 222° |
| 2026-05-07 12:06 | 35.28266 | 139.65610 | 12562 ft | 333 kts | 222° |
| 2026-05-07 12:06 | 35.26494 | 139.63784 | 13343 ft | 335 kts | 222° |
| 2026-05-07 12:06 | 35.24723 | 139.61964 | 14035 ft | 339 kts | 222° |
| 2026-05-07 12:07 | 35.22897 | 139.60087 | 14642 ft | 345 kts | 222° |
| 2026-05-07 12:07 | 35.21047 | 139.58184 | 15237 ft | 350 kts | 222° |
| 2026-05-07 12:07 | 35.19184 | 139.56265 | 15822 ft | 355 kts | 222° |
| 2026-05-07 12:07 | 35.17266 | 139.54285 | 16402 ft | 360 kts | 222° |
| 2026-05-07 12:08 | 35.15471 | 139.52135 | 16936 ft | 363 kts | 232° |
| 2026-05-07 12:08 | 35.13978 | 139.49623 | 17487 ft | 367 kts | 240° |
| 2026-05-07 12:08 | 35.12748 | 139.46859 | 18034 ft | 372 kts | 243° |
| 2026-05-07 12:08 | 35.11552 | 139.44018 | 18516 ft | 377 kts | 243° |
| 2026-05-07 12:09 | 35.10364 | 139.41183 | 19028 ft | 379 kts | 243° |
| 2026-05-07 12:09 | 35.09152 | 139.38312 | 19564 ft | 381 kts | 243° |
| 2026-05-07 12:09 | 35.07924 | 139.35427 | 20082 ft | 384 kts | 243° |
| 2026-05-07 12:09 | 35.06681 | 139.32526 | 20582 ft | 387 kts | 242° |
| 2026-05-07 12:10 | 35.05423 | 139.29598 | 21087 ft | 390 kts | 242° |
| 2026-05-07 12:10 | 35.04158 | 139.26657 | 21572 ft | 394 kts | 243° |
| 2026-05-07 12:10 | 35.03062 | 139.23586 | 22054 ft | 397 kts | 250° |
| 2026-05-07 12:10 | 35.02367 | 139.20310 | 22536 ft | 400 kts | 258° |
| 2026-05-07 12:11 | 35.01833 | 139.16968 | 23024 ft | 403 kts | 258° |
| 2026-05-07 12:11 | 35.01305 | 139.13598 | 23477 ft | 406 kts | 258° |
| 2026-05-07 12:11 | 35.00764 | 139.10208 | 23856 ft | 408 kts | 258° |
| 2026-05-07 12:11 | 35.00207 | 139.06804 | 24270 ft | 410 kts | 257° |
| 2026-05-07 12:12 | 34.99638 | 139.03394 | 24671 ft | 411 kts | 257° |
| 2026-05-07 12:12 | 34.99067 | 138.99986 | 25074 ft | 413 kts | 257° |
| 2026-05-07 12:12 | 34.98638 | 138.96496 | 25449 ft | 417 kts | 264° |
| 2026-05-07 12:12 | 34.98443 | 138.92951 | 25837 ft | 419 kts | 264° |
| 2026-05-07 12:13 | 34.98273 | 138.89394 | 26216 ft | 421 kts | 265° |
| 2026-05-07 12:13 | 34.98105 | 138.85816 | 26578 ft | 422 kts | 264° |
| 2026-05-07 12:13 | 34.97932 | 138.82237 | 26940 ft | 424 kts | 264° |
| 2026-05-07 12:13 | 34.97752 | 138.78655 | 27290 ft | 426 kts | 264° |
| 2026-05-07 12:14 | 34.97563 | 138.75025 | 27625 ft | 428 kts | 264° |
| 2026-05-07 12:14 | 34.97372 | 138.71437 | 27956 ft | 430 kts | 264° |
| 2026-05-07 12:14 | 34.97174 | 138.67786 | 28275 ft | 432 kts | 264° |
| 2026-05-07 12:14 | 34.96976 | 138.64140 | 28592 ft | 434 kts | 264° |
| 2026-05-07 12:15 | 34.96772 | 138.60438 | 28890 ft | 436 kts | 264° |
| 2026-05-07 12:15 | 34.96569 | 138.56750 | 29194 ft | 438 kts | 264° |
| 2026-05-07 12:15 | 34.96361 | 138.52993 | 29496 ft | 440 kts | 263° |
| 2026-05-07 12:15 | 34.96154 | 138.49271 | 29787 ft | 442 kts | 263° |
| 2026-05-07 12:16 | 34.95944 | 138.45526 | 30090 ft | 443 kts | 263° |
| 2026-05-07 12:16 | 34.95734 | 138.41789 | 30451 ft | 441 kts | 263° |
| 2026-05-07 12:16 | 34.95528 | 138.38129 | 30841 ft | 439 kts | 264° |
| 2026-05-07 12:16 | 34.95315 | 138.34385 | 31210 ft | 438 kts | 264° |
| 2026-05-07 12:17 | 34.95107 | 138.30736 | 31537 ft | 438 kts | 264° |
| 2026-05-07 12:17 | 34.94895 | 138.27054 | 31901 ft | 437 kts | 264° |
| 2026-05-07 12:17 | 34.94679 | 138.23310 | 32281 ft | 436 kts | 264° |
| 2026-05-07 12:17 | 34.94466 | 138.19637 | 32663 ft | 434 kts | 264° |
| 2026-05-07 12:18 | 34.94252 | 138.15964 | 33020 ft | 433 kts | 264° |
| 2026-05-07 12:18 | 34.94038 | 138.12312 | 33340 ft | 433 kts | 264° |
| 2026-05-07 12:18 | 34.93827 | 138.08706 | 33720 ft | 431 kts | 264° |
| 2026-05-07 12:18 | 34.93613 | 138.05053 | 34098 ft | 428 kts | 264° |
| 2026-05-07 12:19 | 34.93400 | 138.01432 | 34382 ft | 428 kts | 264° |
| 2026-05-07 12:19 | 34.93189 | 137.97873 | 34647 ft | 427 kts | 264° |
| 2026-05-07 12:19 | 34.92971 | 137.94218 | 34967 ft | 426 kts | 264° |
| 2026-05-07 12:19 | 34.92828 | 137.91816 | 35177 ft | 425 kts | 264° |
| 2026-05-07 12:20 | 34.92612 | 137.88217 | 35426 ft | 425 kts | 264° |
| 2026-05-07 12:20 | 34.92396 | 137.84632 | 35656 ft | 425 kts | 264° |
| 2026-05-07 12:20 | 34.92178 | 137.81036 | 35936 ft | 423 kts | 264° |
| 2026-05-07 12:21 | 34.91762 | 137.73849 | 35958 ft | 425 kts | 264° |
| 2026-05-07 12:21 | 34.91104 | 137.66831 | 35949 ft | 421 kts | 255° |
| 2026-05-07 12:22 | 34.89176 | 137.60047 | 35949 ft | 420 kts | 248° |
| 2026-05-07 12:22 | 34.87110 | 137.53388 | 35955 ft | 422 kts | 249° |
| 2026-05-07 12:23 | 34.85085 | 137.46696 | 35949 ft | 424 kts | 249° |
| 2026-05-07 12:23 | 34.83135 | 137.39909 | 35944 ft | 425 kts | 250° |
| 2026-05-07 12:24 | 34.81210 | 137.33093 | 35950 ft | 425 kts | 250° |
| 2026-05-07 12:24 | 34.79298 | 137.26373 | 35940 ft | 424 kts | 250° |
| 2026-05-07 12:25 | 34.77347 | 137.19565 | 35940 ft | 423 kts | 250° |
| 2026-05-07 12:26 | 34.77105 | 137.18720 | 35936 ft | 423 kts | 250° |
| 2026-05-07 12:27 | 34.75364 | 137.12664 | 35933 ft | 422 kts | 250° |
| 2026-05-07 12:27 | 34.73442 | 137.05988 | 35932 ft | 419 kts | 250° |
| 2026-05-07 12:28 | 34.71572 | 136.99510 | 35940 ft | 416 kts | 249° |
| 2026-05-07 12:28 | 34.68915 | 136.93221 | 35933 ft | 413 kts | 233° |
| 2026-05-07 12:29 | 34.65367 | 136.87743 | 35931 ft | 412 kts | 232° |
| 2026-05-07 12:29 | 34.61790 | 136.82296 | 35941 ft | 413 kts | 232° |
| 2026-05-07 12:30 | 34.58194 | 136.76787 | 35948 ft | 419 kts | 232° |
| 2026-05-07 12:30 | 34.54565 | 136.71207 | 35934 ft | 421 kts | 232° |
| 2026-05-07 12:31 | 34.50956 | 136.65658 | 35938 ft | 422 kts | 232° |
| 2026-05-07 12:31 | 34.47309 | 136.60057 | 35944 ft | 422 kts | 232° |
| 2026-05-07 12:32 | 34.43666 | 136.54471 | 35945 ft | 421 kts | 232° |
| 2026-05-07 12:32 | 34.40117 | 136.49038 | 35947 ft | 419 kts | 232° |
| 2026-05-07 12:33 | 34.34700 | 136.40763 | 35946 ft | 417 kts | 232° |
| 2026-05-07 12:33 | 34.31097 | 136.35268 | 35949 ft | 415 kts | 232° |
| 2026-05-07 12:34 | 34.27527 | 136.29834 | 35958 ft | 413 kts | 232° |
| 2026-05-07 12:34 | 34.23945 | 136.24388 | 35957 ft | 412 kts | 232° |
| 2026-05-07 12:35 | 34.20393 | 136.18997 | 35961 ft | 411 kts | 233° |
| 2026-05-07 12:35 | 34.16830 | 136.13596 | 35961 ft | 411 kts | 232° |
| 2026-05-07 12:36 | 34.13266 | 136.08202 | 35984 ft | 412 kts | 232° |
| 2026-05-07 12:36 | 34.09680 | 136.02782 | 35960 ft | 413 kts | 232° |
| 2026-05-07 12:37 | 34.06088 | 135.97368 | 35977 ft | 415 kts | 232° |
| 2026-05-07 12:37 | 34.02465 | 135.91908 | 35965 ft | 418 kts | 232° |
| 2026-05-07 12:38 | 33.98844 | 135.86459 | 35974 ft | 420 kts | 232° |
| 2026-05-07 12:38 | 33.95189 | 135.80967 | 35954 ft | 421 kts | 232° |
| 2026-05-07 12:39 | 33.91519 | 135.75462 | 35950 ft | 420 kts | 232° |
| 2026-05-07 12:39 | 33.87879 | 135.70010 | 35976 ft | 417 kts | 232° |
| 2026-05-07 12:40 | 33.84237 | 135.64568 | 35959 ft | 416 kts | 232° |
| 2026-05-07 12:40 | 33.83684 | 135.63742 | 35974 ft | 416 kts | 232° |
| 2026-05-07 12:41 | 33.81895 | 135.61073 | 35968 ft | 417 kts | 232° |
| 2026-05-07 12:42 | 33.78269 | 135.55665 | 35971 ft | 416 kts | 232° |
| 2026-05-07 12:42 | 33.74663 | 135.50294 | 35969 ft | 416 kts | 232° |
| 2026-05-07 12:43 | 33.71058 | 135.44899 | 35964 ft | 415 kts | 235° |
| 2026-05-07 12:43 | 33.68280 | 135.38816 | 35968 ft | 414 kts | 245° |
| 2026-05-07 12:44 | 33.65809 | 135.32558 | 35972 ft | 414 kts | 244° |
| 2026-05-07 12:44 | 33.63319 | 135.26315 | 35964 ft | 415 kts | 244° |
| 2026-05-07 12:45 | 33.60817 | 135.20105 | 35968 ft | 415 kts | 244° |
| 2026-05-07 12:45 | 33.58287 | 135.13857 | 35962 ft | 415 kts | 244° |
| 2026-05-07 12:46 | 33.55765 | 135.07643 | 35960 ft | 415 kts | 244° |
| 2026-05-07 12:46 | 33.53250 | 135.01459 | 35956 ft | 415 kts | 244° |
| 2026-05-07 12:47 | 33.50725 | 134.95257 | 35953 ft | 414 kts | 244° |
| 2026-05-07 12:47 | 33.48199 | 134.89066 | 35955 ft | 414 kts | 244° |
| 2026-05-07 12:48 | 33.45704 | 134.82961 | 35957 ft | 414 kts | 244° |
| 2026-05-07 12:48 | 33.43159 | 134.76744 | 35956 ft | 414 kts | 244° |
| 2026-05-07 12:49 | 33.40757 | 134.70890 | 35955 ft | 413 kts | 244° |
| 2026-05-07 12:49 | 33.38231 | 134.64740 | 35955 ft | 413 kts | 244° |
| 2026-05-07 12:50 | 33.35872 | 134.59009 | 35953 ft | 412 kts | 244° |
| 2026-05-07 12:50 | 33.33324 | 134.52829 | 35954 ft | 412 kts | 244° |
| 2026-05-07 12:51 | 33.30781 | 134.46672 | 35957 ft | 411 kts | 244° |
| 2026-05-07 12:51 | 33.28278 | 134.40622 | 35960 ft | 411 kts | 244° |
| 2026-05-07 12:52 | 33.25718 | 134.34444 | 35961 ft | 411 kts | 244° |
| 2026-05-07 12:52 | 33.23189 | 134.28351 | 35960 ft | 410 kts | 244° |
| 2026-05-07 12:53 | 33.20648 | 134.22240 | 35961 ft | 410 kts | 244° |
| 2026-05-07 12:53 | 33.18115 | 134.16158 | 35962 ft | 411 kts | 244° |
| 2026-05-07 12:54 | 33.15720 | 134.10763 | 35514 ft | 416 kts | 242° |
| 2026-05-07 12:54 | 33.14291 | 134.07779 | 34918 ft | 415 kts | 241° |
| 2026-05-07 12:54 | 33.12854 | 134.04810 | 34358 ft | 414 kts | 241° |
| 2026-05-07 12:55 | 33.11416 | 134.01829 | 33650 ft | 416 kts | 242° |
| 2026-05-07 12:55 | 33.09987 | 133.98851 | 33083 ft | 413 kts | 242° |
| 2026-05-07 12:55 | 33.08569 | 133.95880 | 32576 ft | 410 kts | 242° |
| 2026-05-07 12:55 | 33.07165 | 133.92927 | 32085 ft | 406 kts | 242° |
| 2026-05-07 12:56 | 33.05788 | 133.90028 | 31616 ft | 403 kts | 242° |
| 2026-05-07 12:56 | 33.04428 | 133.87164 | 31153 ft | 400 kts | 242° |
| 2026-05-07 12:56 | 33.03036 | 133.84236 | 30679 ft | 397 kts | 242° |
| 2026-05-07 12:56 | 33.01698 | 133.81420 | 30228 ft | 394 kts | 242° |
| 2026-05-07 12:57 | 33.00360 | 133.78609 | 29714 ft | 392 kts | 242° |
| 2026-05-07 12:57 | 32.99000 | 133.75753 | 29196 ft | 389 kts | 242° |
| 2026-05-07 12:57 | 32.97677 | 133.72977 | 28703 ft | 385 kts | 242° |
| 2026-05-07 12:57 | 32.96355 | 133.70207 | 28246 ft | 381 kts | 242° |
| 2026-05-07 12:58 | 32.95047 | 133.67466 | 27778 ft | 378 kts | 242° |
| 2026-05-07 12:58 | 32.93784 | 133.64820 | 27320 ft | 374 kts | 242° |
| 2026-05-07 12:58 | 32.92485 | 133.62104 | 26870 ft | 371 kts | 242° |
| 2026-05-07 12:58 | 32.91241 | 133.59506 | 26471 ft | 367 kts | 242° |
| 2026-05-07 12:59 | 32.90029 | 133.56787 | 26126 ft | 361 kts | 246° |
| 2026-05-07 12:59 | 32.89160 | 133.54010 | 26020 ft | 357 kts | 253° |
| 2026-05-07 12:59 | 32.88458 | 133.51220 | 25956 ft | 346 kts | 253° |
| 2026-05-07 12:59 | 32.87803 | 133.48509 | 25945 ft | 332 kts | 253° |
| 2026-05-07 13:00 | 32.87180 | 133.45930 | 25937 ft | 319 kts | 253° |
| 2026-05-07 13:00 | 32.86445 | 133.43511 | 25939 ft | 305 kts | 245° |
| 2026-05-07 13:00 | 32.85395 | 133.41364 | 25915 ft | 294 kts | 239° |
| 2026-05-07 13:00 | 32.84298 | 133.39364 | 25853 ft | 283 kts | 238° |
| 2026-05-07 13:01 | 32.83239 | 133.37456 | 25777 ft | 274 kts | 238° |
| 2026-05-07 13:01 | 32.82207 | 133.35595 | 25391 ft | 276 kts | 238° |
| 2026-05-07 13:01 | 32.81101 | 133.33591 | 24332 ft | 301 kts | 238° |
| 2026-05-07 13:01 | 32.79898 | 133.31403 | 23185 ft | 328 kts | 238° |
| 2026-05-07 13:02 | 32.78686 | 133.29203 | 23117 ft | 321 kts | 238° |
| 2026-05-07 13:02 | 32.77428 | 133.26917 | 22938 ft | 340 kts | 238° |
| 2026-05-07 13:02 | 32.76102 | 133.24506 | 22652 ft | 350 kts | 238° |
| 2026-05-07 13:02 | 32.74763 | 133.22073 | 22393 ft | 352 kts | 238° |
| 2026-05-07 13:03 | 32.73429 | 133.19649 | 22124 ft | 349 kts | 238° |
| 2026-05-07 13:03 | 32.72546 | 133.18048 | 21945 ft | 348 kts | 238° |
| 2026-05-07 13:03 | 32.71221 | 133.15640 | 21696 ft | 347 kts | 238° |
| 2026-05-07 13:03 | 32.69903 | 133.13248 | 21443 ft | 345 kts | 238° |
| 2026-05-07 13:04 | 32.68588 | 133.10863 | 21191 ft | 344 kts | 238° |
| 2026-05-07 13:04 | 32.66855 | 133.07719 | 20851 ft | 343 kts | 238° |
| 2026-05-07 13:04 | 32.65972 | 133.06119 | 20692 ft | 343 kts | 238° |
| 2026-05-07 13:04 | 32.64668 | 133.03756 | 20446 ft | 342 kts | 238° |
| 2026-05-07 13:05 | 32.63362 | 133.01393 | 20195 ft | 342 kts | 238° |
| 2026-05-07 13:05 | 32.62076 | 132.99066 | 19948 ft | 341 kts | 238° |
| 2026-05-07 13:05 | 32.60773 | 132.96709 | 19701 ft | 341 kts | 238° |
| 2026-05-07 13:05 | 32.59471 | 132.94356 | 19449 ft | 340 kts | 238° |
| 2026-05-07 13:06 | 32.58170 | 132.92008 | 19200 ft | 340 kts | 238° |
| 2026-05-07 13:06 | 32.56875 | 132.89670 | 18954 ft | 339 kts | 238° |
| 2026-05-07 13:06 | 32.55580 | 132.87334 | 18708 ft | 338 kts | 238° |
| 2026-05-07 13:06 | 32.54292 | 132.85012 | 18461 ft | 336 kts | 238° |
| 2026-05-07 13:07 | 32.53009 | 132.82700 | 18199 ft | 335 kts | 238° |
| 2026-05-07 13:07 | 32.51731 | 132.80399 | 17922 ft | 334 kts | 238° |
| 2026-05-07 13:07 | 32.50456 | 132.78106 | 17659 ft | 331 kts | 238° |
| 2026-05-07 13:07 | 32.49190 | 132.75829 | 17409 ft | 329 kts | 238° |
| 2026-05-07 13:08 | 32.47951 | 132.73601 | 17165 ft | 328 kts | 238° |
| 2026-05-07 13:08 | 32.46696 | 132.71348 | 16922 ft | 326 kts | 238° |
| 2026-05-07 13:08 | 32.45453 | 132.69117 | 16694 ft | 325 kts | 238° |
| 2026-05-07 13:08 | 32.44210 | 132.66886 | 16449 ft | 324 kts | 238° |
| 2026-05-07 13:09 | 32.42977 | 132.64676 | 16201 ft | 323 kts | 238° |
| 2026-05-07 13:09 | 32.41732 | 132.62445 | 15984 ft | 322 kts | 237° |
| 2026-05-07 13:09 | 32.40496 | 132.60231 | 15740 ft | 322 kts | 237° |
| 2026-05-07 13:09 | 32.39284 | 132.58061 | 15512 ft | 322 kts | 237° |
| 2026-05-07 13:10 | 32.38029 | 132.55816 | 15274 ft | 321 kts | 237° |
| 2026-05-07 13:10 | 32.36787 | 132.53597 | 15033 ft | 321 kts | 237° |
| 2026-05-07 13:10 | 32.35552 | 132.51388 | 14793 ft | 321 kts | 237° |
| 2026-05-07 13:10 | 32.34323 | 132.49190 | 14556 ft | 319 kts | 237° |
| 2026-05-07 13:11 | 32.33122 | 132.47035 | 14295 ft | 316 kts | 237° |
| 2026-05-07 13:11 | 32.31919 | 132.44873 | 13889 ft | 314 kts | 237° |
| 2026-05-07 13:11 | 32.30714 | 132.42706 | 13427 ft | 315 kts | 237° |
| 2026-05-07 13:11 | 32.29515 | 132.40554 | 13012 ft | 313 kts | 238° |
| 2026-05-07 13:12 | 32.28338 | 132.38439 | 12639 ft | 310 kts | 238° |
| 2026-05-07 13:12 | 32.27134 | 132.36280 | 12231 ft | 308 kts | 238° |
| 2026-05-07 13:12 | 32.25968 | 132.34189 | 11833 ft | 307 kts | 238° |
| 2026-05-07 13:12 | 32.24792 | 132.32082 | 11449 ft | 305 kts | 238° |
| 2026-05-07 13:13 | 32.23640 | 132.30018 | 11200 ft | 299 kts | 238° |
| 2026-05-07 13:13 | 32.22514 | 132.28005 | 11117 ft | 287 kts | 238° |
| 2026-05-07 13:13 | 32.21432 | 132.26070 | 11049 ft | 276 kts | 238° |
| 2026-05-07 13:13 | 32.20390 | 132.24208 | 10942 ft | 268 kts | 238° |
| 2026-05-07 13:14 | 32.19375 | 132.22393 | 10719 ft | 264 kts | 238° |
| 2026-05-07 13:14 | 32.18372 | 132.20600 | 10447 ft | 262 kts | 238° |
| 2026-05-07 13:14 | 32.17367 | 132.18804 | 10162 ft | 261 kts | 238° |
| 2026-05-07 13:14 | 32.16363 | 132.17011 | 9904 ft | 259 kts | 238° |
| 2026-05-07 13:15 | 32.15397 | 132.15290 | 9886 ft | 243 kts | 238° |
| 2026-05-07 13:15 | 32.14493 | 132.13680 | 9785 ft | 227 kts | 239° |
| 2026-05-07 13:15 | 32.13650 | 132.12180 | 9674 ft | 212 kts | 239° |
| 2026-05-07 13:15 | 32.12859 | 132.10770 | 9562 ft | 199 kts | 239° |
| 2026-05-07 13:16 | 32.12115 | 132.09445 | 9344 ft | 191 kts | 238° |
| 2026-05-07 13:16 | 32.11392 | 132.08156 | 9004 ft | 191 kts | 238° |
| 2026-05-07 13:16 | 32.10661 | 132.06853 | 8659 ft | 190 kts | 238° |
| 2026-05-07 13:16 | 32.09931 | 132.05552 | 8338 ft | 189 kts | 238° |
| 2026-05-07 13:17 | 32.09204 | 132.04258 | 7998 ft | 189 kts | 237° |
| 2026-05-07 13:17 | 32.08479 | 132.02967 | 7647 ft | 189 kts | 237° |
| 2026-05-07 13:17 | 32.07751 | 132.01672 | 7330 ft | 189 kts | 237° |
| 2026-05-07 13:17 | 32.07031 | 132.00391 | 7084 ft | 186 kts | 237° |
| 2026-05-07 13:18 | 32.06321 | 131.99129 | 6915 ft | 183 kts | 237° |
| 2026-05-07 13:18 | 32.05617 | 131.97878 | 6761 ft | 184 kts | 236° |
| 2026-05-07 13:18 | 32.04929 | 131.96656 | 6613 ft | 177 kts | 236° |
| 2026-05-07 13:18 | 32.04248 | 131.95449 | 6461 ft | 173 kts | 236° |
| 2026-05-07 13:19 | 32.03586 | 131.94273 | 6293 ft | 171 kts | 236° |
| 2026-05-07 13:19 | 32.02928 | 131.93107 | 6145 ft | 170 kts | 236° |
| 2026-05-07 13:19 | 32.02274 | 131.91946 | 5990 ft | 169 kts | 236° |
| 2026-05-07 13:19 | 32.01634 | 131.90812 | 5848 ft | 168 kts | 236° |
| 2026-05-07 13:20 | 32.00990 | 131.89670 | 5710 ft | 167 kts | 236° |
| 2026-05-07 13:20 | 32.00339 | 131.88517 | 5585 ft | 171 kts | 236° |
| 2026-05-07 13:20 | 31.99678 | 131.87346 | 5476 ft | 167 kts | 236° |
| 2026-05-07 13:20 | 31.99057 | 131.86247 | 5277 ft | 154 kts | 236° |
| 2026-05-07 13:21 | 31.98478 | 131.85222 | 5148 ft | 148 kts | 236° |
| 2026-05-07 13:21 | 31.97908 | 131.84212 | 5031 ft | 149 kts | 236° |
| 2026-05-07 13:21 | 31.97336 | 131.83200 | 4920 ft | 151 kts | 236° |
| 2026-05-07 13:21 | 31.96752 | 131.82168 | 4801 ft | 152 kts | 236° |
| 2026-05-07 13:22 | 31.96162 | 131.81125 | 4666 ft | 153 kts | 236° |
| 2026-05-07 13:22 | 31.95575 | 131.80087 | 4531 ft | 153 kts | 236° |
| 2026-05-07 13:22 | 31.94987 | 131.79047 | 4401 ft | 152 kts | 236° |
| 2026-05-07 13:22 | 31.94400 | 131.78010 | 4270 ft | 152 kts | 236° |
| 2026-05-07 13:23 | 31.93819 | 131.76982 | 4146 ft | 151 kts | 236° |
| 2026-05-07 13:23 | 31.93236 | 131.75953 | 4013 ft | 150 kts | 236° |
| 2026-05-07 13:23 | 31.92660 | 131.74936 | 3883 ft | 149 kts | 237° |
| 2026-05-07 13:23 | 31.92089 | 131.73928 | 3767 ft | 147 kts | 236° |
| 2026-05-07 13:24 | 31.91519 | 131.72924 | 3644 ft | 147 kts | 236° |
| 2026-05-07 13:24 | 31.90949 | 131.71918 | 3512 ft | 148 kts | 237° |
| 2026-05-07 13:24 | 31.90378 | 131.70913 | 3389 ft | 147 kts | 237° |
| 2026-05-07 13:24 | 31.89824 | 131.69928 | 3269 ft | 145 kts | 240° |
| 2026-05-07 13:25 | 31.89464 | 131.68826 | 3155 ft | 144 kts | 256° |
| 2026-05-07 13:25 | 31.89338 | 131.67657 | 3030 ft | 145 kts | 264° |
| 2026-05-07 13:25 | 31.89252 | 131.66469 | 2909 ft | 146 kts | 264° |
| 2026-05-07 13:25 | 31.89171 | 131.65325 | 2803 ft | 143 kts | 264° |
| 2026-05-07 13:26 | 31.89098 | 131.64160 | 2671 ft | 143 kts | 265° |
| 2026-05-07 13:26 | 31.89022 | 131.63003 | 2550 ft | 142 kts | 265° |
| 2026-05-07 13:26 | 31.88941 | 131.61847 | 2430 ft | 142 kts | 264° |
| 2026-05-07 13:26 | 31.88858 | 131.60703 | 2378 ft | 141 kts | 265° |
| 2026-05-07 13:27 | 31.88770 | 131.59510 | 2187 ft | 144 kts | 264° |
| 2026-05-07 13:27 | 31.88685 | 131.58345 | 2068 ft | 142 kts | 264° |
| 2026-05-07 13:27 | 31.88600 | 131.57183 | 1894 ft | 141 kts | 265° |
| 2026-05-07 13:27 | 31.88519 | 131.56042 | 1735 ft | 143 kts | 265° |
| 2026-05-07 13:28 | 31.88434 | 131.54861 | 1537 ft | 145 kts | 264° |
| 2026-05-07 13:28 | 31.88349 | 131.53679 | 1339 ft | 144 kts | 264° |
| 2026-05-07 13:28 | 31.88263 | 131.52506 | 1147 ft | 143 kts | 264° |
| 2026-05-07 13:28 | 31.88178 | 131.51340 | 966 ft | 144 kts | 264° |
| 2026-05-07 13:29 | 31.88094 | 131.50168 | 794 ft | 147 kts | 265° |
| 2026-05-07 13:29 | 31.88004 | 131.48973 | 596 ft | 147 kts | 266° |
| 2026-05-07 13:29 | 31.87934 | 131.47776 | 358 ft | 147 kts | 266° |
| 2026-05-07 13:29 | 31.87865 | 131.46586 | 146 ft | 141 kts | 264° |
| 2026-05-07 13:30 | 31.87746 | 131.45461 | 32 ft | 122 kts | 270° |
| 2026-05-07 13:30 | 31.87718 | 131.44998 | 32 ft | 17 kts | 265° |
| 2026-05-07 13:30 | 31.87709 | 131.44864 | 33 ft | 16 kts | 265° |
| 2026-05-07 13:30 | 31.87699 | 131.44733 | 32 ft | 16 kts | 265° |
| 2026-05-07 13:31 | 31.87680 | 131.44610 | 30 ft | 15 kts | 237° |
| 2026-05-07 13:31 | 31.87585 | 131.44589 | 32 ft | 14 kts | 175° |
| 2026-05-07 13:31 | 31.87518 | 131.44528 | 31 ft | 14 kts | 265° |
| 2026-05-07 13:31 | 31.87511 | 131.44419 | 32 ft | 13 kts | 265° |
| 2026-05-07 13:32 | 31.87504 | 131.44318 | 32 ft | 12 kts | 265° |
| 2026-05-07 13:32 | 31.87496 | 131.44222 | 32 ft | 12 kts | 265° |
| 2026-05-07 13:32 | 31.87484 | 131.44145 | 32 ft | 7 kts | 229° |
| 2026-05-07 13:32 | 31.87433 | 131.44141 | 32 ft | 8 kts | 172° |
| 2026-05-07 13:33 | 31.87382 | 131.44146 | 32 ft | 6 kts | 175° |
| 2026-05-07 13:33 | 31.87365 | 131.44148 | 32 ft | 1 kts | 175° |
| 2026-05-07 13:33 | 31.87357 | 131.44149 | 32 ft | 0 kts | 175° |